sensor_id;sensor_type;location;lat;lon;timestamp;pressure;altitude;pressure_sealevel;temperature;humidity
9462;BME280;4769;42.660;23.262;2023-08-17T00:01:36;94051.28;;;23.73;77.61
9462;BME280;4769;42.660;23.262;2023-08-17T00:04:02;94055.13;;;23.64;78.12
9462;BME280;4769;42.660;23.262;2023-08-17T00:06:28;94062.09;;;23.56;78.60
9462;BME280;4769;42.660;23.262;2023-08-17T00:08:53;94061.97;;;23.53;79.02
9462;BME280;4769;42.660;23.262;2023-08-17T00:11:19;94062.13;;;23.48;79.46
9462;BME280;4769;42.660;23.262;2023-08-17T00:13:48;94068.28;;;23.57;78.91
9462;BME280;4769;42.660;23.262;2023-08-17T00:16:13;94068.75;;;23.59;79.21
9462;BME280;4769;42.660;23.262;2023-08-17T00:18:39;94070.31;;;23.60;79.41
9462;BME280;4769;42.660;23.262;2023-08-17T00:21:05;94075.75;;;23.51;80.15
9462;BME280;4769;42.660;23.262;2023-08-17T00:23:30;94069.72;;;23.46;80.46
9462;BME280;4769;42.660;23.262;2023-08-17T00:25:56;94060.88;;;23.45;80.61
9462;BME280;4769;42.660;23.262;2023-08-17T00:28:22;94072.63;;;23.32;81.17
9462;BME280;4769;42.660;23.262;2023-08-17T00:30:50;94076.41;;;23.14;82.25
9462;BME280;4769;42.660;23.262;2023-08-17T00:33:16;94072.16;;;23.13;82.41
9462;BME280;4769;42.660;23.262;2023-08-17T00:35:42;94063.94;;;23.10;82.84
9462;BME280;4769;42.660;23.262;2023-08-17T00:38:08;94068.06;;;23.07;83.04
9462;BME280;4769;42.660;23.262;2023-08-17T00:40:34;94060.13;;;23.11;82.56
9462;BME280;4769;42.660;23.262;2023-08-17T00:43:00;94067.88;;;22.95;83.57
9462;BME280;4769;42.660;23.262;2023-08-17T00:45:26;94065.50;;;22.94;83.48
9462;BME280;4769;42.660;23.262;2023-08-17T00:47:57;94076.75;;;23.04;83.03
9462;BME280;4769;42.660;23.262;2023-08-17T00:50:23;94063.44;;;23.08;81.50
9462;BME280;4769;42.660;23.262;2023-08-17T00:52:49;94069.63;;;23.00;81.11
9462;BME280;4769;42.660;23.262;2023-08-17T00:55:16;94059.19;;;22.90;80.50
9462;BME280;4769;42.660;23.262;2023-08-17T00:57:42;94064.56;;;23.07;79.54
9462;BME280;4769;42.660;23.262;2023-08-17T01:00:10;94047.31;;;22.99;78.04
9462;BME280;4769;42.660;23.262;2023-08-17T01:02:36;94059.66;;;23.00;77.36
9462;BME280;4769;42.660;23.262;2023-08-17T01:05:06;94056.81;;;23.05;76.42
9462;BME280;4769;42.660;23.262;2023-08-17T01:07:31;94062.03;;;23.02;75.96
9462;BME280;4769;42.660;23.262;2023-08-17T01:09:57;94058.72;;;22.96;75.65
9462;BME280;4769;42.660;23.262;2023-08-17T01:12:28;94061.41;;;22.96;75.39
9462;BME280;4769;42.660;23.262;2023-08-17T01:15:01;94046.38;;;22.95;74.42
9462;BME280;4769;42.660;23.262;2023-08-17T01:17:33;94056.81;;;23.05;73.48
9462;BME280;4769;42.660;23.262;2023-08-17T01:20:00;94047.81;;;22.93;73.36
9462;BME280;4769;42.660;23.262;2023-08-17T01:22:30;94053.16;;;23.01;72.76
9462;BME280;4769;42.660;23.262;2023-08-17T01:25:00;94047.78;;;23.01;72.09
9462;BME280;4769;42.660;23.262;2023-08-17T01:27:29;94037.84;;;22.93;70.83
9462;BME280;4769;42.660;23.262;2023-08-17T01:29:55;94043.53;;;23.00;69.83
9462;BME280;4769;42.660;23.262;2023-08-17T01:32:29;94054.59;;;23.07;69.43
9462;BME280;4769;42.660;23.262;2023-08-17T01:35:01;94037.19;;;22.96;69.52
9462;BME280;4769;42.660;23.262;2023-08-17T01:37:28;94044.63;;;23.08;68.63
9462;BME280;4769;42.660;23.262;2023-08-17T01:39:56;94044.00;;;22.94;68.74
9462;BME280;4769;42.660;23.262;2023-08-17T01:42:26;94038.94;;;23.01;68.22
9462;BME280;4769;42.660;23.262;2023-08-17T01:44:52;94051.44;;;22.97;68.38
9462;BME280;4769;42.660;23.262;2023-08-17T01:47:20;94054.75;;;22.94;68.01
9462;BME280;4769;42.660;23.262;2023-08-17T01:49:46;94042.44;;;22.84;67.66
9462;BME280;4769;42.660;23.262;2023-08-17T01:52:12;94043.84;;;22.90;67.50
9462;BME280;4769;42.660;23.262;2023-08-17T01:54:37;94044.97;;;22.89;67.12
9462;BME280;4769;42.660;23.262;2023-08-17T01:57:03;94038.13;;;23.00;67.29
9462;BME280;4769;42.660;23.262;2023-08-17T01:59:32;94046.06;;;22.88;67.49
9462;BME280;4769;42.660;23.262;2023-08-17T02:01:57;94046.06;;;22.88;67.41
9462;BME280;4769;42.660;23.262;2023-08-17T02:04:23;94050.97;;;22.86;67.11
9462;BME280;4769;42.660;23.262;2023-08-17T02:06:49;94050.94;;;22.95;66.93
9462;BME280;4769;42.660;23.262;2023-08-17T02:09:15;94053.03;;;22.89;67.19
9462;BME280;4769;42.660;23.262;2023-08-17T02:11:41;94055.88;;;22.84;66.93
9462;BME280;4769;42.660;23.262;2023-08-17T02:14:06;94051.28;;;22.76;66.77
9462;BME280;4769;42.660;23.262;2023-08-17T02:16:35;94049.88;;;22.70;66.95
9462;BME280;4769;42.660;23.262;2023-08-17T02:19:00;94050.03;;;22.74;66.90
9462;BME280;4769;42.660;23.262;2023-08-17T02:21:26;94048.28;;;22.69;67.20
9462;BME280;4769;42.660;23.262;2023-08-17T02:23:52;94047.31;;;22.57;68.05
9462;BME280;4769;42.660;23.262;2023-08-17T02:26:17;94055.06;;;22.58;68.28
9462;BME280;4769;42.660;23.262;2023-08-17T02:28:43;94036.44;;;22.45;69.21
9462;BME280;4769;42.660;23.262;2023-08-17T02:31:09;94050.81;;;22.57;69.53
9462;BME280;4769;42.660;23.262;2023-08-17T02:33:37;94052.41;;;22.58;69.48
9462;BME280;4769;42.660;23.262;2023-08-17T02:36:03;94033.41;;;22.46;69.92
9462;BME280;4769;42.660;23.262;2023-08-17T02:38:29;94037.94;;;22.29;71.18
9462;BME280;4769;42.660;23.262;2023-08-17T02:40:55;94039.72;;;22.33;70.88
9462;BME280;4769;42.660;23.262;2023-08-17T02:43:20;94035.56;;;22.19;71.52
9462;BME280;4769;42.660;23.262;2023-08-17T02:45:46;94052.56;;;22.45;71.28
9462;BME280;4769;42.660;23.262;2023-08-17T02:48:12;94049.34;;;22.34;71.87
9462;BME280;4769;42.660;23.262;2023-08-17T02:50:41;94036.19;;;22.16;71.98
9462;BME280;4769;42.660;23.262;2023-08-17T02:53:07;94034.91;;;22.13;72.57
9462;BME280;4769;42.660;23.262;2023-08-17T02:55:33;94045.84;;;22.17;72.31
9462;BME280;4769;42.660;23.262;2023-08-17T02:57:58;94045.03;;;22.16;72.22
9462;BME280;4769;42.660;23.262;2023-08-17T03:00:24;94039.19;;;22.14;71.93
9462;BME280;4769;42.660;23.262;2023-08-17T03:02:50;94046.63;;;22.17;72.41
9462;BME280;4769;42.660;23.262;2023-08-17T03:05:16;94054.38;;;22.19;72.34
9462;BME280;4769;42.660;23.262;2023-08-17T03:07:44;94045.50;;;22.18;72.30
9462;BME280;4769;42.660;23.262;2023-08-17T03:10:10;94045.19;;;22.20;72.72
9462;BME280;4769;42.660;23.262;2023-08-17T03:12:35;94054.53;;;22.22;72.46
9462;BME280;4769;42.660;23.262;2023-08-17T03:15:01;94035.88;;;22.09;73.16
9462;BME280;4769;42.660;23.262;2023-08-17T03:17:27;94050.03;;;21.92;74.46
9462;BME280;4769;42.660;23.262;2023-08-17T03:19:52;94049.69;;;21.85;75.11
9462;BME280;4769;42.660;23.262;2023-08-17T03:22:18;94051.31;;;21.64;75.33
9462;BME280;4769;42.660;23.262;2023-08-17T03:24:46;94052.56;;;21.58;75.70
9462;BME280;4769;42.660;23.262;2023-08-17T03:27:12;94052.56;;;21.58;74.97
9462;BME280;4769;42.660;23.262;2023-08-17T03:29:38;94054.56;;;21.44;75.60
9462;BME280;4769;42.660;23.262;2023-08-17T03:32:04;94053.09;;;21.38;75.61
9462;BME280;4769;42.660;23.262;2023-08-17T03:34:30;94055.59;;;21.35;75.79
9462;BME280;4769;42.660;23.262;2023-08-17T03:36:56;94061.78;;;21.35;75.88
9462;BME280;4769;42.660;23.262;2023-08-17T03:39:22;94065.84;;;21.33;75.95
9462;BME280;4769;42.660;23.262;2023-08-17T03:41:50;94068.16;;;21.26;75.97
9462;BME280;4769;42.660;23.262;2023-08-17T03:44:16;94068.91;;;21.18;76.57
9462;BME280;4769;42.660;23.262;2023-08-17T03:46:41;94058.84;;;21.23;75.91
9462;BME280;4769;42.660;23.262;2023-08-17T03:49:07;94066.63;;;21.33;75.62
9462;BME280;4769;42.660;23.262;2023-08-17T03:51:33;94062.81;;;21.26;75.68
9462;BME280;4769;42.660;23.262;2023-08-17T03:53:58;94066.72;;;21.20;74.96
9462;BME280;4769;42.660;23.262;2023-08-17T03:56:24;94071.66;;;21.26;75.02
9462;BME280;4769;42.660;23.262;2023-08-17T03:58:53;94079.13;;;21.38;74.56
9462;BME280;4769;42.660;23.262;2023-08-17T04:01:19;94086.41;;;21.46;74.51
9462;BME280;4769;42.660;23.262;2023-08-17T04:03:45;94075.13;;;21.57;74.53
9462;BME280;4769;42.660;23.262;2023-08-17T04:06:10;94085.56;;;21.67;74.01
9462;BME280;4769;42.660;23.262;2023-08-17T04:08:36;94086.69;;;21.66;73.85
9462;BME280;4769;42.660;23.262;2023-08-17T04:11:02;94088.19;;;21.72;73.41
9462;BME280;4769;42.660;23.262;2023-08-17T04:13:27;94081.88;;;21.77;72.43
9462;BME280;4769;42.660;23.262;2023-08-17T04:15:56;94082.88;;;21.89;72.73
9462;BME280;4769;42.660;23.262;2023-08-17T04:18:22;94084.78;;;21.97;72.44
9462;BME280;4769;42.660;23.262;2023-08-17T04:20:47;94078.81;;;22.00;70.64
9462;BME280;4769;42.660;23.262;2023-08-17T04:23:13;94080.91;;;22.12;70.26
9462;BME280;4769;42.660;23.262;2023-08-17T04:25:39;94084.06;;;22.22;70.02
9462;BME280;4769;42.660;23.262;2023-08-17T04:28:05;94069.22;;;22.16;69.50
9462;BME280;4769;42.660;23.262;2023-08-17T04:30:31;94074.63;;;22.33;69.23
9462;BME280;4769;42.660;23.262;2023-08-17T04:32:59;94077.34;;;22.50;69.25
9462;BME280;4769;42.660;23.262;2023-08-17T04:35:25;94085.09;;;22.52;68.89
9462;BME280;4769;42.660;23.262;2023-08-17T04:37:50;94063.44;;;22.40;68.72
9462;BME280;4769;42.660;23.262;2023-08-17T04:40:16;94074.31;;;22.43;71.13
9462;BME280;4769;42.660;23.262;2023-08-17T04:42:42;94082.56;;;22.47;71.09
9462;BME280;4769;42.660;23.262;2023-08-17T04:45:08;94084.16;;;22.48;70.39
9462;BME280;4769;42.660;23.262;2023-08-17T04:47:34;94081.13;;;22.41;69.26
9462;BME280;4769;42.660;23.262;2023-08-17T04:50:03;94081.88;;;22.33;69.73
9462;BME280;4769;42.660;23.262;2023-08-17T04:52:29;94082.78;;;22.11;69.96
9462;BME280;4769;42.660;23.262;2023-08-17T04:54:54;94081.31;;;21.97;71.27
9462;BME280;4769;42.660;23.262;2023-08-17T04:57:20;94081.00;;;21.98;73.93
9462;BME280;4769;42.660;23.262;2023-08-17T04:59:46;94085.31;;;22.08;76.89
9462;BME280;4769;42.660;23.262;2023-08-17T05:02:11;94084.06;;;22.22;77.28
9462;BME280;4769;42.660;23.262;2023-08-17T05:04:37;94081.88;;;22.24;78.00
9462;BME280;4769;42.660;23.262;2023-08-17T05:07:05;94079.84;;;22.38;78.20
9462;BME280;4769;42.660;23.262;2023-08-17T05:09:31;94076.50;;;22.33;78.42
9462;BME280;4769;42.660;23.262;2023-08-17T05:11:57;94079.09;;;22.46;78.63
9462;BME280;4769;42.660;23.262;2023-08-17T05:14:24;94086.88;;;22.65;78.28
9462;BME280;4769;42.660;23.262;2023-08-17T05:16:50;94078.50;;;22.75;78.15
9462;BME280;4769;42.660;23.262;2023-08-17T05:19:18;94076.44;;;22.89;77.71
9462;BME280;4769;42.660;23.262;2023-08-17T05:21:44;94077.56;;;22.79;78.60
9462;BME280;4769;42.660;23.262;2023-08-17T05:24:12;94080.38;;;22.66;78.82
9462;BME280;4769;42.660;23.262;2023-08-17T05:26:38;94072.97;;;22.71;79.26
9462;BME280;4769;42.660;23.262;2023-08-17T05:29:04;94077.53;;;22.88;78.56
9462;BME280;4769;42.660;23.262;2023-08-17T05:31:30;94089.84;;;22.72;78.53
9462;BME280;4769;42.660;23.262;2023-08-17T05:33:55;94088.75;;;22.64;79.27
9462;BME280;4769;42.660;23.262;2023-08-17T05:36:21;94082.13;;;22.96;79.29
9462;BME280;4769;42.660;23.262;2023-08-17T05:38:47;94075.59;;;23.48;78.13
9462;BME280;4769;42.660;23.262;2023-08-17T05:41:15;94085.41;;;23.99;75.26
9462;BME280;4769;42.660;23.262;2023-08-17T05:43:41;94084.34;;;24.29;72.35
9462;BME280;4769;42.660;23.262;2023-08-17T05:46:06;94086.22;;;24.28;71.65
9462;BME280;4769;42.660;23.262;2023-08-17T05:48:32;94088.97;;;24.20;71.88
9462;BME280;4769;42.660;23.262;2023-08-17T05:50:58;94082.47;;;24.21;71.44
9462;BME280;4769;42.660;23.262;2023-08-17T05:53:24;94090.97;;;24.31;70.66
9462;BME280;4769;42.660;23.262;2023-08-17T05:55:49;94097.28;;;24.35;69.92
9462;BME280;4769;42.660;23.262;2023-08-17T05:58:18;94085.53;;;24.40;69.79
9462;BME280;4769;42.660;23.262;2023-08-17T06:00:43;94100.81;;;24.56;69.17
9462;BME280;4769;42.660;23.262;2023-08-17T06:03:09;94090.03;;;24.56;68.50
9462;BME280;4769;42.660;23.262;2023-08-17T06:05:35;94093.09;;;24.46;68.83
9462;BME280;4769;42.660;23.262;2023-08-17T06:08:00;94092.56;;;24.61;67.92
9462;BME280;4769;42.660;23.262;2023-08-17T06:10:26;94100.66;;;24.82;67.48
9462;BME280;4769;42.660;23.262;2023-08-17T06:12:52;94097.03;;;24.78;66.90
9462;BME280;4769;42.660;23.262;2023-08-17T06:15:20;94094.22;;;24.95;64.46
9462;BME280;4769;42.660;23.262;2023-08-17T06:17:46;94091.25;;;25.08;63.25
9462;BME280;4769;42.660;23.262;2023-08-17T06:20:12;94082.34;;;25.28;62.58
9462;BME280;4769;42.660;23.262;2023-08-17T06:22:38;94097.16;;;25.43;62.06
9462;BME280;4769;42.660;23.262;2023-08-17T06:25:04;94089.59;;;25.69;61.62
9462;BME280;4769;42.660;23.262;2023-08-17T06:27:30;94094.94;;;25.89;60.95
9462;BME280;4769;42.660;23.262;2023-08-17T06:29:56;94096.84;;;26.01;60.60
9462;BME280;4769;42.660;23.262;2023-08-17T06:32:24;94087.88;;;26.09;61.14
9462;BME280;4769;42.660;23.262;2023-08-17T06:34:50;94089.47;;;26.22;60.05
9462;BME280;4769;42.660;23.262;2023-08-17T06:37:15;94091.13;;;26.38;59.24
9462;BME280;4769;42.660;23.262;2023-08-17T06:39:41;94096.44;;;26.47;58.46
9462;BME280;4769;42.660;23.262;2023-08-17T06:42:07;94087.97;;;26.48;58.20
9462;BME280;4769;42.660;23.262;2023-08-17T06:44:32;94090.38;;;26.62;58.32
9462;BME280;4769;42.660;23.262;2023-08-17T06:46:58;94103.53;;;26.87;56.48
9462;BME280;4769;42.660;23.262;2023-08-17T06:49:27;94097.75;;;26.89;56.11
9462;BME280;4769;42.660;23.262;2023-08-17T06:51:54;94090.03;;;27.03;56.53
9462;BME280;4769;42.660;23.262;2023-08-17T06:54:19;94090.59;;;27.20;55.80
9462;BME280;4769;42.660;23.262;2023-08-17T06:56:45;94093.56;;;27.43;54.65
9462;BME280;4769;42.660;23.262;2023-08-17T06:59:11;94079.66;;;27.44;54.39
9462;BME280;4769;42.660;23.262;2023-08-17T07:01:36;94083.00;;;27.81;55.81
9462;BME280;4769;42.660;23.262;2023-08-17T07:04:03;94080.75;;;28.14;55.07
9462;BME280;4769;42.660;23.262;2023-08-17T07:06:31;94085.28;;;28.25;55.42
9462;BME280;4769;42.660;23.262;2023-08-17T07:08:57;94089.84;;;28.21;55.20
9462;BME280;4769;42.660;23.262;2023-08-17T07:11:22;94080.66;;;28.10;54.36
9462;BME280;4769;42.660;23.262;2023-08-17T07:13:48;94075.13;;;28.38;53.53
9462;BME280;4769;42.660;23.262;2023-08-17T07:16:14;94074.06;;;28.73;52.19
9462;BME280;4769;42.660;23.262;2023-08-17T07:18:40;94076.97;;;28.99;50.38
9462;BME280;4769;42.660;23.262;2023-08-17T07:21:06;94077.28;;;28.79;49.64
9462;BME280;4769;42.660;23.262;2023-08-17T07:23:34;94078.22;;;28.86;48.39
9462;BME280;4769;42.660;23.262;2023-08-17T07:25:59;94061.06;;;28.82;48.78
9462;BME280;4769;42.660;23.262;2023-08-17T07:28:25;94073.91;;;29.01;48.63
9462;BME280;4769;42.660;23.262;2023-08-17T07:30:51;94066.75;;;28.77;47.56
9462;BME280;4769;42.660;23.262;2023-08-17T07:33:17;94070.31;;;28.97;47.33
9462;BME280;4769;42.660;23.262;2023-08-17T07:35:42;94062.13;;;29.12;46.25
9462;BME280;4769;42.660;23.262;2023-08-17T07:38:08;94058.34;;;29.17;45.28
9462;BME280;4769;42.660;23.262;2023-08-17T07:40:36;94068.94;;;29.41;43.96
9462;BME280;4769;42.660;23.262;2023-08-17T07:43:02;94055.41;;;29.63;42.47
9462;BME280;4769;42.660;23.262;2023-08-17T07:45:28;94058.19;;;29.89;41.78
9462;BME280;4769;42.660;23.262;2023-08-17T07:47:54;94054.69;;;30.11;41.21
9462;BME280;4769;42.660;23.262;2023-08-17T07:50:20;94061.03;;;30.15;40.39
9462;BME280;4769;42.660;23.262;2023-08-17T07:52:45;94069.53;;;30.14;40.76
9462;BME280;4769;42.660;23.262;2023-08-17T07:55:11;94069.97;;;30.16;39.85
9462;BME280;4769;42.660;23.262;2023-08-17T07:57:39;94055.78;;;29.62;41.14
9462;BME280;4769;42.660;23.262;2023-08-17T08:00:06;94061.91;;;30.00;40.83
9462;BME280;4769;42.660;23.262;2023-08-17T08:02:32;94058.94;;;29.86;40.72
9462;BME280;4769;42.660;23.262;2023-08-17T08:04:58;94059.41;;;29.92;41.35
9462;BME280;4769;42.660;23.262;2023-08-17T08:07:23;94054.56;;;30.23;40.60
9462;BME280;4769;42.660;23.262;2023-08-17T08:09:49;94046.13;;;30.32;40.48
9462;BME280;4769;42.660;23.262;2023-08-17T08:12:15;94052.84;;;30.64;40.29
9462;BME280;4769;42.660;23.262;2023-08-17T08:14:43;94054.31;;;30.84;39.93
9462;BME280;4769;42.660;23.262;2023-08-17T08:17:09;94046.25;;;30.65;40.17
9462;BME280;4769;42.660;23.262;2023-08-17T08:19:35;94046.06;;;30.77;40.26
9462;BME280;4769;42.660;23.262;2023-08-17T08:22:00;94043.63;;;30.98;40.26
9462;BME280;4769;42.660;23.262;2023-08-17T08:24:26;94048.81;;;31.06;39.44
9462;BME280;4769;42.660;23.262;2023-08-17T08:26:52;94050.97;;;30.94;39.79
9462;BME280;4769;42.660;23.262;2023-08-17T08:29:17;94054.13;;;30.96;39.58
9462;BME280;4769;42.660;23.262;2023-08-17T08:31:46;94051.28;;;31.18;39.01
9462;BME280;4769;42.660;23.262;2023-08-17T08:34:11;94043.84;;;31.45;38.69
9462;BME280;4769;42.660;23.262;2023-08-17T08:36:37;94039.38;;;31.63;38.91
9462;BME280;4769;42.660;23.262;2023-08-17T08:39:03;94031.16;;;31.96;38.45
9462;BME280;4769;42.660;23.262;2023-08-17T08:41:29;94043.59;;;31.90;38.44
9462;BME280;4769;42.660;23.262;2023-08-17T08:43:56;94040.13;;;31.93;38.01
9462;BME280;4769;42.660;23.262;2023-08-17T08:46:22;94040.19;;;32.00;38.05
9462;BME280;4769;42.660;23.262;2023-08-17T08:48:54;94038.66;;;31.66;38.83
9462;BME280;4769;42.660;23.262;2023-08-17T08:51:25;94038.72;;;32.10;38.34
9462;BME280;4769;42.660;23.262;2023-08-17T08:53:57;94032.13;;;32.14;38.33
9462;BME280;4769;42.660;23.262;2023-08-17T08:56:25;94038.81;;;32.67;37.20
9462;BME280;4769;42.660;23.262;2023-08-17T08:58:52;94026.84;;;32.82;36.69
9462;BME280;4769;42.660;23.262;2023-08-17T09:01:19;94028.84;;;32.99;36.58
9462;BME280;4769;42.660;23.262;2023-08-17T09:03:46;94019.97;;;33.09;35.88
9462;BME280;4769;42.660;23.262;2023-08-17T09:06:16;94025.88;;;33.22;36.19
9462;BME280;4769;42.660;23.262;2023-08-17T09:08:43;94014.44;;;33.02;35.91
9462;BME280;4769;42.660;23.262;2023-08-17T09:11:09;94017.59;;;33.04;35.59
9462;BME280;4769;42.660;23.262;2023-08-17T09:13:35;94006.59;;;32.94;35.89
9462;BME280;4769;42.660;23.262;2023-08-17T09:16:01;94019.13;;;33.02;35.66
9462;BME280;4769;42.660;23.262;2023-08-17T09:18:26;94015.19;;;32.99;35.96
9462;BME280;4769;42.660;23.262;2023-08-17T09:20:52;94013.84;;;33.40;35.11
9462;BME280;4769;42.660;23.262;2023-08-17T09:23:22;94001.03;;;33.76;34.36
9462;BME280;4769;42.660;23.262;2023-08-17T09:25:49;94011.25;;;33.82;34.66
9462;BME280;4769;42.660;23.262;2023-08-17T09:28:16;94007.06;;;33.06;34.78
9462;BME280;4769;42.660;23.262;2023-08-17T09:30:52;94007.13;;;33.27;35.24
9462;BME280;4769;42.660;23.262;2023-08-17T09:33:18;94000.28;;;33.72;34.20
9462;BME280;4769;42.660;23.262;2023-08-17T09:35:44;94004.66;;;33.97;33.93
9462;BME280;4769;42.660;23.262;2023-08-17T09:38:10;93996.06;;;34.16;33.91
9462;BME280;4769;42.660;23.262;2023-08-17T09:40:39;93987.03;;;34.58;33.31
9462;BME280;4769;42.660;23.262;2023-08-17T09:43:05;93984.31;;;34.58;32.26
9462;BME280;4769;42.660;23.262;2023-08-17T09:45:30;93985.88;;;34.48;32.31
9462;BME280;4769;42.660;23.262;2023-08-17T09:47:58;93976.91;;;34.34;32.79
9462;BME280;4769;42.660;23.262;2023-08-17T09:50:24;93975.75;;;34.42;32.04
9462;BME280;4769;42.660;23.262;2023-08-17T09:52:52;93978.44;;;34.59;31.87
9462;BME280;4769;42.660;23.262;2023-08-17T09:55:19;93978.06;;;34.47;31.73
9462;BME280;4769;42.660;23.262;2023-08-17T09:57:48;93974.91;;;34.66;30.87
9462;BME280;4769;42.660;23.262;2023-08-17T10:00:15;93974.03;;;35.07;30.48
9462;BME280;4769;42.660;23.262;2023-08-17T10:02:42;93981.81;;;35.19;29.97
9462;BME280;4769;42.660;23.262;2023-08-17T10:05:11;93972.06;;;35.08;30.58
9462;BME280;4769;42.660;23.262;2023-08-17T10:07:40;93961.03;;;35.18;32.66
9462;BME280;4769;42.660;23.262;2023-08-17T10:10:07;93967.00;;;35.03;31.10
9462;BME280;4769;42.660;23.262;2023-08-17T10:12:40;93955.88;;;35.45;30.26
9462;BME280;4769;42.660;23.262;2023-08-17T10:15:11;93956.53;;;35.66;29.91
9462;BME280;4769;42.660;23.262;2023-08-17T10:17:44;93958.09;;;35.74;29.01
9462;BME280;4769;42.660;23.262;2023-08-17T10:20:14;93954.34;;;36.02;29.35
9462;BME280;4769;42.660;23.262;2023-08-17T10:22:44;93958.03;;;36.32;28.10
9462;BME280;4769;42.660;23.262;2023-08-17T10:25:15;93939.16;;;36.38;27.49
9462;BME280;4769;42.660;23.262;2023-08-17T10:27:41;93942.41;;;36.26;27.63
9462;BME280;4769;42.660;23.262;2023-08-17T10:30:12;93950.38;;;36.06;27.75
9462;BME280;4769;42.660;23.262;2023-08-17T10:32:38;93944.09;;;36.09;28.55
9462;BME280;4769;42.660;23.262;2023-08-17T10:35:04;93944.94;;;35.99;28.77
9462;BME280;4769;42.660;23.262;2023-08-17T10:37:32;93947.44;;;36.31;27.60
9462;BME280;4769;42.660;23.262;2023-08-17T10:39:58;93947.13;;;36.22;27.40
9462;BME280;4769;42.660;23.262;2023-08-17T10:42:30;93937.63;;;36.33;26.63
9462;BME280;4769;42.660;23.262;2023-08-17T10:44:56;93950.75;;;36.96;26.80
9462;BME280;4769;42.660;23.262;2023-08-17T10:47:26;93935.03;;;36.56;26.27
9462;BME280;4769;42.660;23.262;2023-08-17T10:49:56;93946.56;;;36.85;27.16
9462;BME280;4769;42.660;23.262;2023-08-17T10:52:26;93928.81;;;36.89;26.24
9462;BME280;4769;42.660;23.262;2023-08-17T10:54:53;93927.47;;;36.27;26.74
9462;BME280;4769;42.660;23.262;2023-08-17T10:57:27;93921.56;;;36.72;26.20
9462;BME280;4769;42.660;23.262;2023-08-17T11:00:15;93934.09;;;37.40;25.38
9462;BME280;4769;42.660;23.262;2023-08-17T11:02:44;93936.88;;;37.70;24.74
9462;BME280;4769;42.660;23.262;2023-08-17T11:05:10;93931.84;;;37.65;24.72
9462;BME280;4769;42.660;23.262;2023-08-17T11:07:40;93916.19;;;37.55;24.48
9462;BME280;4769;42.660;23.262;2023-08-17T11:10:27;93919.75;;;37.82;24.16
9462;BME280;4769;42.660;23.262;2023-08-17T11:12:53;93920.44;;;38.16;23.74
9462;BME280;4769;42.660;23.262;2023-08-17T11:15:21;93921.91;;;38.90;22.80
9462;BME280;4769;42.660;23.262;2023-08-17T11:17:49;93917.00;;;39.37;22.34
9462;BME280;4769;42.660;23.262;2023-08-17T11:20:15;93916.72;;;39.12;22.43
9462;BME280;4769;42.660;23.262;2023-08-17T11:22:41;93915.31;;;39.03;22.13
9462;BME280;4769;42.660;23.262;2023-08-17T11:25:07;93909.59;;;38.94;22.28
9462;BME280;4769;42.660;23.262;2023-08-17T11:27:33;93918.28;;;38.93;22.88
9462;BME280;4769;42.660;23.262;2023-08-17T11:29:59;93915.84;;;39.38;22.22
9462;BME280;4769;42.660;23.262;2023-08-17T11:32:25;93901.28;;;39.53;21.88
9462;BME280;4769;42.660;23.262;2023-08-17T11:34:53;93906.41;;;39.71;21.71
9462;BME280;4769;42.660;23.262;2023-08-17T11:37:19;93882.25;;;39.75;21.78
9462;BME280;4769;42.660;23.262;2023-08-17T11:39:46;93887.75;;;40.10;21.46
9462;BME280;4769;42.660;23.262;2023-08-17T11:42:11;93899.31;;;40.21;21.65
9462;BME280;4769;42.660;23.262;2023-08-17T11:44:38;93893.31;;;40.07;22.46
9462;BME280;4769;42.660;23.262;2023-08-17T11:47:04;93893.97;;;40.30;22.71
9462;BME280;4769;42.660;23.262;2023-08-17T11:49:30;93877.66;;;40.20;22.15
9462;BME280;4769;42.660;23.262;2023-08-17T11:52:05;93873.13;;;40.10;22.66
9462;BME280;4769;42.660;23.262;2023-08-17T11:54:32;93879.88;;;40.09;22.41
9462;BME280;4769;42.660;23.262;2023-08-17T11:56:58;93876.06;;;40.03;22.61
9462;BME280;4769;42.660;23.262;2023-08-17T11:59:24;93890.66;;;40.03;22.56
9462;BME280;4769;42.660;23.262;2023-08-17T12:01:49;93884.72;;;40.37;22.46
9462;BME280;4769;42.660;23.262;2023-08-17T12:04:15;93885.09;;;40.51;22.21
9462;BME280;4769;42.660;23.262;2023-08-17T12:06:43;93870.72;;;40.60;21.95
9462;BME280;4769;42.660;23.262;2023-08-17T12:09:12;93876.06;;;39.87;23.10
9462;BME280;4769;42.660;23.262;2023-08-17T12:11:38;93871.53;;;39.61;23.49
9462;BME280;4769;42.660;23.262;2023-08-17T12:14:09;93855.16;;;39.70;23.50
9462;BME280;4769;42.660;23.262;2023-08-17T12:16:34;93877.09;;;39.77;23.23
9462;BME280;4769;42.660;23.262;2023-08-17T12:19:00;93872.78;;;40.40;22.93
9462;BME280;4769;42.660;23.262;2023-08-17T12:21:26;93876.31;;;41.01;22.24
9462;BME280;4769;42.660;23.262;2023-08-17T12:23:52;93868.84;;;41.26;21.65
9462;BME280;4769;42.660;23.262;2023-08-17T12:26:23;93871.75;;;41.48;21.76
9462;BME280;4769;42.660;23.262;2023-08-17T12:28:49;93869.25;;;41.91;21.54
9462;BME280;4769;42.660;23.262;2023-08-17T12:31:21;93869.44;;;42.09;20.93
9462;BME280;4769;42.660;23.262;2023-08-17T12:33:46;93860.63;;;41.35;21.52
9462;BME280;4769;42.660;23.262;2023-08-17T12:36:12;93867.31;;;42.00;20.99
9462;BME280;4769;42.660;23.262;2023-08-17T12:38:38;93865.81;;;41.87;21.08
9462;BME280;4769;42.660;23.262;2023-08-17T12:41:03;93869.38;;;40.93;21.85
9462;BME280;4769;42.660;23.262;2023-08-17T12:43:31;93870.53;;;40.51;22.66
9462;BME280;4769;42.660;23.262;2023-08-17T12:45:57;93868.66;;;41.46;21.86
9462;BME280;4769;42.660;23.262;2023-08-17T12:48:23;93855.13;;;41.98;21.29
9462;BME280;4769;42.660;23.262;2023-08-17T12:50:48;93868.22;;;42.22;21.03
9462;BME280;4769;42.660;23.262;2023-08-17T12:53:14;93871.66;;;42.94;20.64
9462;BME280;4769;42.660;23.262;2023-08-17T12:55:40;93875.63;;;43.06;20.04
9462;BME280;4769;42.660;23.262;2023-08-17T12:58:07;93866.88;;;43.16;20.13
9462;BME280;4769;42.660;23.262;2023-08-17T13:00:36;93881.34;;;43.54;20.74
9462;BME280;4769;42.660;23.262;2023-08-17T13:03:02;93875.09;;;43.72;21.28
9462;BME280;4769;42.660;23.262;2023-08-17T13:05:27;93878.56;;;43.54;21.32
9462;BME280;4769;42.660;23.262;2023-08-17T13:07:53;93874.06;;;42.37;23.12